sensor_id;sensor_type;location;lat;lon;timestamp;temperature;humidity
4411;DHT22;2218;51.408;7.208;2022-11-13T00:00:03;19.80;39.90
4411;DHT22;2218;51.408;7.208;2022-11-13T00:02:51;19.80;39.90
4411;DHT22;2218;51.408;7.208;2022-11-13T00:05:36;19.80;39.90
4411;DHT22;2218;51.408;7.208;2022-11-13T00:08:22;19.80;39.90
4411;DHT22;2218;51.408;7.208;2022-11-13T00:11:09;19.80;39.90
4411;DHT22;2218;51.408;7.208;2022-11-13T00:13:56;19.80;39.90
4411;DHT22;2218;51.408;7.208;2022-11-13T00:16:41;19.80;40.40
4411;DHT22;2218;51.408;7.208;2022-11-13T00:19:28;19.80;39.90
4411;DHT22;2218;51.408;7.208;2022-11-13T00:22:14;19.80;39.90
4411;DHT22;2218;51.408;7.208;2022-11-13T00:24:59;19.80;39.90
4411;DHT22;2218;51.408;7.208;2022-11-13T00:27:45;19.80;39.90
4411;DHT22;2218;51.408;7.208;2022-11-13T00:30:30;19.80;39.90
4411;DHT22;2218;51.408;7.208;2022-11-13T00:33:16;19.80;39.90
4411;DHT22;2218;51.408;7.208;2022-11-13T00:36:05;19.80;39.90
4411;DHT22;2218;51.408;7.208;2022-11-13T00:38:52;19.80;39.90
4411;DHT22;2218;51.408;7.208;2022-11-13T00:41:38;19.80;39.90
4411;DHT22;2218;51.408;7.208;2022-11-13T00:44:24;19.80;39.90
4411;DHT22;2218;51.408;7.208;2022-11-13T00:47:09;19.80;39.90
4411;DHT22;2218;51.408;7.208;2022-11-13T00:49:55;19.80;39.90
4411;DHT22;2218;51.408;7.208;2022-11-13T00:52:42;19.70;39.90
4411;DHT22;2218;51.408;7.208;2022-11-13T00:55:27;19.70;39.90
4411;DHT22;2218;51.408;7.208;2022-11-13T00:58:13;19.70;39.90
4411;DHT22;2218;51.408;7.208;2022-11-13T01:01:04;19.70;39.90
4411;DHT22;2218;51.408;7.208;2022-11-13T01:03:51;19.70;39.90
4411;DHT22;2218;51.408;7.208;2022-11-13T01:06:37;19.70;39.90
4411;DHT22;2218;51.408;7.208;2022-11-13T01:09:24;19.70;39.90
4411;DHT22;2218;51.408;7.208;2022-11-13T01:12:09;19.70;39.90
4411;DHT22;2218;51.408;7.208;2022-11-13T01:14:55;19.70;39.90
4411;DHT22;2218;51.408;7.208;2022-11-13T01:17:40;19.70;39.90
4411;DHT22;2218;51.408;7.208;2022-11-13T01:20:26;19.70;39.90
4411;DHT22;2218;51.408;7.208;2022-11-13T01:23:12;19.70;39.90
4411;DHT22;2218;51.408;7.208;2022-11-13T01:26:06;19.70;39.80
4411;DHT22;2218;51.408;7.208;2022-11-13T01:28:53;19.70;39.90
4411;DHT22;2218;51.408;7.208;2022-11-13T01:31:40;19.70;39.80
4411;DHT22;2218;51.408;7.208;2022-11-13T01:34:26;19.70;39.90
4411;DHT22;2218;51.408;7.208;2022-11-13T01:37:11;19.70;39.80
4411;DHT22;2218;51.408;7.208;2022-11-13T01:39:57;19.70;39.80
4411;DHT22;2218;51.408;7.208;2022-11-13T01:42:44;19.70;39.80
4411;DHT22;2218;51.408;7.208;2022-11-13T01:46:06;19.70;39.80
4411;DHT22;2218;51.408;7.208;2022-11-13T01:49:02;19.70;39.80
4411;DHT22;2218;51.408;7.208;2022-11-13T01:52:02;19.70;39.80
4411;DHT22;2218;51.408;7.208;2022-11-13T01:54:52;19.70;39.80
4411;DHT22;2218;51.408;7.208;2022-11-13T01:57:41;19.60;39.70
4411;DHT22;2218;51.408;7.208;2022-11-13T02:00:27;19.60;39.70
4411;DHT22;2218;51.408;7.208;2022-11-13T02:03:13;19.60;39.70
4411;DHT22;2218;51.408;7.208;2022-11-13T02:05:59;19.60;39.70
4411;DHT22;2218;51.408;7.208;2022-11-13T02:08:45;19.60;39.70
4411;DHT22;2218;51.408;7.208;2022-11-13T02:11:33;19.60;39.70
4411;DHT22;2218;51.408;7.208;2022-11-13T02:14:19;19.60;39.60
4411;DHT22;2218;51.408;7.208;2022-11-13T02:17:12;19.60;39.70
4411;DHT22;2218;51.408;7.208;2022-11-13T02:20:01;19.60;39.70
4411;DHT22;2218;51.408;7.208;2022-11-13T02:22:53;19.60;39.70
4411;DHT22;2218;51.408;7.208;2022-11-13T02:25:47;19.70;39.80
4411;DHT22;2218;51.408;7.208;2022-11-13T02:28:36;19.60;39.70
4411;DHT22;2218;51.408;7.208;2022-11-13T02:31:22;19.60;39.70
4411;DHT22;2218;51.408;7.208;2022-11-13T02:34:08;19.60;39.70
4411;DHT22;2218;51.408;7.208;2022-11-13T02:36:53;19.60;39.70
4411;DHT22;2218;51.408;7.208;2022-11-13T02:39:39;19.60;39.60
4411;DHT22;2218;51.408;7.208;2022-11-13T02:42:26;19.60;39.60
4411;DHT22;2218;51.408;7.208;2022-11-13T02:45:12;19.60;39.60
4411;DHT22;2218;51.408;7.208;2022-11-13T02:47:59;19.60;39.60
4411;DHT22;2218;51.408;7.208;2022-11-13T02:50:44;19.60;39.60
4411;DHT22;2218;51.408;7.208;2022-11-13T02:53:30;19.60;39.60
4411;DHT22;2218;51.408;7.208;2022-11-13T02:56:16;19.60;39.60
4411;DHT22;2218;51.408;7.208;2022-11-13T02:59:03;19.60;39.50
4411;DHT22;2218;51.408;7.208;2022-11-13T03:01:48;19.60;39.50
4411;DHT22;2218;51.408;7.208;2022-11-13T03:04:34;19.60;39.50
4411;DHT22;2218;51.408;7.208;2022-11-13T03:07:20;19.60;39.50
4411;DHT22;2218;51.408;7.208;2022-11-13T03:10:06;19.60;39.40
4411;DHT22;2218;51.408;7.208;2022-11-13T03:12:52;19.60;39.40
4411;DHT22;2218;51.408;7.208;2022-11-13T03:15:39;19.60;39.40
4411;DHT22;2218;51.408;7.208;2022-11-13T03:18:25;19.60;39.40
4411;DHT22;2218;51.408;7.208;2022-11-13T03:21:12;19.50;39.20
4411;DHT22;2218;51.408;7.208;2022-11-13T03:23:58;19.50;39.20
4411;DHT22;2218;51.408;7.208;2022-11-13T03:26:44;19.50;39.20
4411;DHT22;2218;51.408;7.208;2022-11-13T03:29:30;19.50;39.10
4411;DHT22;2218;51.408;7.208;2022-11-13T03:32:17;19.50;39.20
4411;DHT22;2218;51.408;7.208;2022-11-13T03:35:03;19.50;39.10
4411;DHT22;2218;51.408;7.208;2022-11-13T03:37:50;19.50;39.10
4411;DHT22;2218;51.408;7.208;2022-11-13T03:40:35;19.50;39.60
4411;DHT22;2218;51.408;7.208;2022-11-13T03:43:21;19.50;39.20
4411;DHT22;2218;51.408;7.208;2022-11-13T03:46:07;19.50;38.70
4411;DHT22;2218;51.408;7.208;2022-11-13T03:48:54;19.60;39.20
4411;DHT22;2218;51.408;7.208;2022-11-13T03:51:40;19.60;39.10
4411;DHT22;2218;51.408;7.208;2022-11-13T03:54:25;19.60;39.00
4411;DHT22;2218;51.408;7.208;2022-11-13T03:57:11;19.60;39.00
4411;DHT22;2218;51.408;7.208;2022-11-13T03:59:56;19.60;38.80
4411;DHT22;2218;51.408;7.208;2022-11-13T04:02:42;19.60;38.80
4411;DHT22;2218;51.408;7.208;2022-11-13T04:05:29;19.70;38.80
4411;DHT22;2218;51.408;7.208;2022-11-13T04:08:16;19.70;38.80
4411;DHT22;2218;51.408;7.208;2022-11-13T04:11:06;19.70;38.80
4411;DHT22;2218;51.408;7.208;2022-11-13T04:13:52;19.70;38.70
4411;DHT22;2218;51.408;7.208;2022-11-13T04:16:37;19.70;38.70
4411;DHT22;2218;51.408;7.208;2022-11-13T04:19:23;19.70;38.70
4411;DHT22;2218;51.408;7.208;2022-11-13T04:22:10;19.70;38.60
4411;DHT22;2218;51.408;7.208;2022-11-13T04:24:55;19.70;38.60
4411;DHT22;2218;51.408;7.208;2022-11-13T04:27:41;19.70;38.50
4411;DHT22;2218;51.408;7.208;2022-11-13T04:30:27;19.70;38.50
4411;DHT22;2218;51.408;7.208;2022-11-13T04:33:12;19.70;38.40
4411;DHT22;2218;51.408;7.208;2022-11-13T04:35:58;19.70;38.40
4411;DHT22;2218;51.408;7.208;2022-11-13T04:38:45;19.70;38.40
4411;DHT22;2218;51.408;7.208;2022-11-13T04:41:30;19.70;38.30
4411;DHT22;2218;51.408;7.208;2022-11-13T04:44:34;19.70;38.20
4411;DHT22;2218;51.408;7.208;2022-11-13T04:47:19;19.70;38.20
4411;DHT22;2218;51.408;7.208;2022-11-13T04:50:05;19.70;38.20
4411;DHT22;2218;51.408;7.208;2022-11-13T04:52:51;19.70;38.20
4411;DHT22;2218;51.408;7.208;2022-11-13T04:55:38;19.70;38.10
4411;DHT22;2218;51.408;7.208;2022-11-13T04:58:24;19.70;38.10
4411;DHT22;2218;51.408;7.208;2022-11-13T05:01:10;19.70;38.00
4411;DHT22;2218;51.408;7.208;2022-11-13T05:03:55;19.70;38.00
4411;DHT22;2218;51.408;7.208;2022-11-13T05:06:41;19.70;38.10
4411;DHT22;2218;51.408;7.208;2022-11-13T05:09:27;19.70;38.00
4411;DHT22;2218;51.408;7.208;2022-11-13T05:12:14;19.70;38.10
4411;DHT22;2218;51.408;7.208;2022-11-13T05:14:59;19.70;38.10
4411;DHT22;2218;51.408;7.208;2022-11-13T05:17:47;19.70;38.00
4411;DHT22;2218;51.408;7.208;2022-11-13T05:20:33;19.70;37.90
4411;DHT22;2218;51.408;7.208;2022-11-13T05:23:18;19.70;37.90
4411;DHT22;2218;51.408;7.208;2022-11-13T05:26:06;19.70;38.00
4411;DHT22;2218;51.408;7.208;2022-11-13T05:28:55;19.70;38.10
4411;DHT22;2218;51.408;7.208;2022-11-13T05:31:41;19.70;38.00
4411;DHT22;2218;51.408;7.208;2022-11-13T05:34:27;19.70;38.00
4411;DHT22;2218;51.408;7.208;2022-11-13T05:37:12;19.70;38.00
4411;DHT22;2218;51.408;7.208;2022-11-13T05:39:57;19.70;37.90
4411;DHT22;2218;51.408;7.208;2022-11-13T05:42:43;19.70;37.90
4411;DHT22;2218;51.408;7.208;2022-11-13T05:45:30;19.70;37.90
4411;DHT22;2218;51.408;7.208;2022-11-13T05:48:15;19.70;37.90
4411;DHT22;2218;51.408;7.208;2022-11-13T05:51:02;19.70;37.80
4411;DHT22;2218;51.408;7.208;2022-11-13T05:53:49;19.70;37.80
4411;DHT22;2218;51.408;7.208;2022-11-13T05:56:35;19.70;37.60
4411;DHT22;2218;51.408;7.208;2022-11-13T05:59:21;19.70;37.60
4411;DHT22;2218;51.408;7.208;2022-11-13T06:02:08;19.70;37.60
4411;DHT22;2218;51.408;7.208;2022-11-13T06:04:54;19.70;37.40
4411;DHT22;2218;51.408;7.208;2022-11-13T06:07:39;19.70;37.40
4411;DHT22;2218;51.408;7.208;2022-11-13T06:10:25;19.70;37.40
4411;DHT22;2218;51.408;7.208;2022-11-13T06:13:10;19.70;37.40
4411;DHT22;2218;51.408;7.208;2022-11-13T06:16:00;19.70;37.40
4411;DHT22;2218;51.408;7.208;2022-11-13T06:18:49;19.70;37.50
4411;DHT22;2218;51.408;7.208;2022-11-13T06:21:38;19.70;37.30
4411;DHT22;2218;51.408;7.208;2022-11-13T06:24:24;19.70;37.40
4411;DHT22;2218;51.408;7.208;2022-11-13T06:27:10;19.70;37.30
4411;DHT22;2218;51.408;7.208;2022-11-13T06:29:56;19.70;37.20
4411;DHT22;2218;51.408;7.208;2022-11-13T06:32:41;19.70;37.20
4411;DHT22;2218;51.408;7.208;2022-11-13T06:35:29;19.70;37.10
4411;DHT22;2218;51.408;7.208;2022-11-13T06:38:15;19.70;37.00
4411;DHT22;2218;51.408;7.208;2022-11-13T06:41:01;19.70;37.00
4411;DHT22;2218;51.408;7.208;2022-11-13T06:43:48;19.70;37.00
4411;DHT22;2218;51.408;7.208;2022-11-13T06:46:34;19.70;37.00
4411;DHT22;2218;51.408;7.208;2022-11-13T06:49:20;19.70;36.90
4411;DHT22;2218;51.408;7.208;2022-11-13T06:52:07;19.70;36.90
4411;DHT22;2218;51.408;7.208;2022-11-13T06:54:52;19.70;36.80
4411;DHT22;2218;51.408;7.208;2022-11-13T06:57:37;19.70;36.80
4411;DHT22;2218;51.408;7.208;2022-11-13T07:00:23;19.80;36.90
4411;DHT22;2218;51.408;7.208;2022-11-13T07:03:14;19.80;36.70
4411;DHT22;2218;51.408;7.208;2022-11-13T07:06:03;19.80;36.70
4411;DHT22;2218;51.408;7.208;2022-11-13T07:08:52;19.80;36.70
4411;DHT22;2218;51.408;7.208;2022-11-13T07:11:38;19.90;36.70
4411;DHT22;2218;51.408;7.208;2022-11-13T07:14:24;19.90;36.70
4411;DHT22;2218;51.408;7.208;2022-11-13T07:17:09;19.90;36.60
4411;DHT22;2218;51.408;7.208;2022-11-13T07:19:55;19.90;36.60
4411;DHT22;2218;51.408;7.208;2022-11-13T07:22:40;19.90;36.40
4411;DHT22;2218;51.408;7.208;2022-11-13T07:25:28;19.90;36.30
4411;DHT22;2218;51.408;7.208;2022-11-13T07:28:14;20.00;36.20
4411;DHT22;2218;51.408;7.208;2022-11-13T07:31:00;20.00;36.30
4411;DHT22;2218;51.408;7.208;2022-11-13T07:33:47;20.00;36.30
4411;DHT22;2218;51.408;7.208;2022-11-13T07:36:34;20.00;36.00
4411;DHT22;2218;51.408;7.208;2022-11-13T07:39:19;20.00;36.00
4411;DHT22;2218;51.408;7.208;2022-11-13T07:42:06;20.00;36.10
4411;DHT22;2218;51.408;7.208;2022-11-13T07:44:52;20.00;36.10
4411;DHT22;2218;51.408;7.208;2022-11-13T07:47:37;20.00;36.00
4411;DHT22;2218;51.408;7.208;2022-11-13T07:50:24;20.00;36.10
4411;DHT22;2218;51.408;7.208;2022-11-13T07:53:09;20.00;36.00
4411;DHT22;2218;51.408;7.208;2022-11-13T07:55:55;20.00;36.20
4411;DHT22;2218;51.408;7.208;2022-11-13T07:58:45;20.00;36.20
4411;DHT22;2218;51.408;7.208;2022-11-13T08:01:30;20.00;36.10
4411;DHT22;2218;51.408;7.208;2022-11-13T08:04:16;20.00;36.10
4411;DHT22;2218;51.408;7.208;2022-11-13T08:07:01;20.00;36.10
4411;DHT22;2218;51.408;7.208;2022-11-13T08:09:47;20.00;36.10
4411;DHT22;2218;51.408;7.208;2022-11-13T08:12:32;20.00;36.10
4411;DHT22;2218;51.408;7.208;2022-11-13T08:15:19;20.00;36.10
4411;DHT22;2218;51.408;7.208;2022-11-13T08:18:05;20.00;36.10
4411;DHT22;2218;51.408;7.208;2022-11-13T08:20:51;20.00;36.10
4411;DHT22;2218;51.408;7.208;2022-11-13T08:23:36;20.00;36.10
4411;DHT22;2218;51.408;7.208;2022-11-13T08:26:22;20.00;36.20
4411;DHT22;2218;51.408;7.208;2022-11-13T08:29:08;20.00;36.20
4411;DHT22;2218;51.408;7.208;2022-11-13T08:31:55;20.00;36.20
4411;DHT22;2218;51.408;7.208;2022-11-13T08:34:41;20.00;36.20
4411;DHT22;2218;51.408;7.208;2022-11-13T08:37:26;20.00;36.20
4411;DHT22;2218;51.408;7.208;2022-11-13T08:40:12;20.00;36.20
4411;DHT22;2218;51.408;7.208;2022-11-13T08:42:58;20.00;36.30
4411;DHT22;2218;51.408;7.208;2022-11-13T08:45:45;20.00;36.30
4411;DHT22;2218;51.408;7.208;2022-11-13T08:48:32;20.00;36.40
4411;DHT22;2218;51.408;7.208;2022-11-13T08:51:18;20.00;36.30
4411;DHT22;2218;51.408;7.208;2022-11-13T08:54:04;20.00;36.40
4411;DHT22;2218;51.408;7.208;2022-11-13T08:56:50;20.00;36.40
4411;DHT22;2218;51.408;7.208;2022-11-13T08:59:35;20.00;36.30
4411;DHT22;2218;51.408;7.208;2022-11-13T09:02:21;20.00;36.30
4411;DHT22;2218;51.408;7.208;2022-11-13T09:05:10;20.00;36.30
4411;DHT22;2218;51.408;7.208;2022-11-13T09:07:57;20.00;36.40
4411;DHT22;2218;51.408;7.208;2022-11-13T09:10:43;20.00;36.40
4411;DHT22;2218;51.408;7.208;2022-11-13T09:13:29;20.00;36.40
4411;DHT22;2218;51.408;7.208;2022-11-13T09:16:15;20.00;36.50
4411;DHT22;2218;51.408;7.208;2022-11-13T09:19:01;20.00;36.60
4411;DHT22;2218;51.408;7.208;2022-11-13T09:21:49;20.00;36.60
4411;DHT22;2218;51.408;7.208;2022-11-13T09:24:35;20.00;36.70
4411;DHT22;2218;51.408;7.208;2022-11-13T09:27:21;20.00;36.80
4411;DHT22;2218;51.408;7.208;2022-11-13T09:30:07;20.00;36.90
4411;DHT22;2218;51.408;7.208;2022-11-13T09:32:54;20.00;36.90
4411;DHT22;2218;51.408;7.208;2022-11-13T09:35:41;20.00;36.90
4411;DHT22;2218;51.408;7.208;2022-11-13T09:38:28;20.00;36.90
4411;DHT22;2218;51.408;7.208;2022-11-13T09:41:18;20.00;36.90
4411;DHT22;2218;51.408;7.208;2022-11-13T09:44:12;20.00;36.80
4411;DHT22;2218;51.408;7.208;2022-11-13T09:47:07;20.00;37.00
4411;DHT22;2218;51.408;7.208;2022-11-13T09:49:59;20.00;37.00
4411;DHT22;2218;51.408;7.208;2022-11-13T09:52:49;20.00;37.00
4411;DHT22;2218;51.408;7.208;2022-11-13T09:55:43;20.00;37.00
4411;DHT22;2218;51.408;7.208;2022-11-13T09:58:44;20.00;37.00
4411;DHT22;2218;51.408;7.208;2022-11-13T10:01:42;20.00;37.10
4411;DHT22;2218;51.408;7.208;2022-11-13T10:04:46;20.00;37.60
4411;DHT22;2218;51.408;7.208;2022-11-13T10:07:45;20.00;37.10
4411;DHT22;2218;51.408;7.208;2022-11-13T10:10:47;20.00;37.00
4411;DHT22;2218;51.408;7.208;2022-11-13T10:13:41;20.00;37.00
4411;DHT22;2218;51.408;7.208;2022-11-13T10:16:31;20.00;37.10
4411;DHT22;2218;51.408;7.208;2022-11-13T10:19:24;20.00;37.00
4411;DHT22;2218;51.408;7.208;2022-11-13T10:22:17;20.00;37.10
4411;DHT22;2218;51.408;7.208;2022-11-13T10:25:14;20.00;37.00
4411;DHT22;2218;51.408;7.208;2022-11-13T10:28:11;20.00;37.10
4411;DHT22;2218;51.408;7.208;2022-11-13T10:31:00;20.00;37.10
4411;DHT22;2218;51.408;7.208;2022-11-13T10:33:46;20.00;37.60
4411;DHT22;2218;51.408;7.208;2022-11-13T10:36:36;20.00;37.00
4411;DHT22;2218;51.408;7.208;2022-11-13T10:39:28;20.00;37.00
4411;DHT22;2218;51.408;7.208;2022-11-13T10:42:20;20.00;37.00
4411;DHT22;2218;51.408;7.208;2022-11-13T10:45:16;20.00;37.10
4411;DHT22;2218;51.408;7.208;2022-11-13T10:48:05;20.00;37.10
4411;DHT22;2218;51.408;7.208;2022-11-13T10:51:05;20.00;37.10
4411;DHT22;2218;51.408;7.208;2022-11-13T10:54:19;20.00;37.10
4411;DHT22;2218;51.408;7.208;2022-11-13T10:57:26;20.00;37.20
4411;DHT22;2218;51.408;7.208;2022-11-13T11:00:24;20.00;37.10
4411;DHT22;2218;51.408;7.208;2022-11-13T11:03:15;20.00;37.20
4411;DHT22;2218;51.408;7.208;2022-11-13T11:06:03;20.00;37.10
4411;DHT22;2218;51.408;7.208;2022-11-13T11:08:49;20.00;37.20
4411;DHT22;2218;51.408;7.208;2022-11-13T11:11:34;20.00;37.00
4411;DHT22;2218;51.408;7.208;2022-11-13T11:14:41;20.00;37.10
4411;DHT22;2218;51.408;7.208;2022-11-13T11:17:37;20.00;37.10
4411;DHT22;2218;51.408;7.208;2022-11-13T11:20:38;20.00;37.10
4411;DHT22;2218;51.408;7.208;2022-11-13T11:23:35;20.00;37.10
4411;DHT22;2218;51.408;7.208;2022-11-13T11:26:29;20.00;37.10
4411;DHT22;2218;51.408;7.208;2022-11-13T11:29:24;20.00;37.00
4411;DHT22;2218;51.408;7.208;2022-11-13T11:32:18;20.00;37.10
4411;DHT22;2218;51.408;7.208;2022-11-13T11:35:18;20.10;37.10
4411;DHT22;2218;51.408;7.208;2022-11-13T11:38:10;20.00;37.00
4411;DHT22;2218;51.408;7.208;2022-11-13T11:41:04;20.00;37.00
4411;DHT22;2218;51.408;7.208;2022-11-13T11:43:59;20.10;37.10
4411;DHT22;2218;51.408;7.208;2022-11-13T11:46:49;20.10;37.10
4411;DHT22;2218;51.408;7.208;2022-11-13T11:49:35;20.10;37.10
4411;DHT22;2218;51.408;7.208;2022-11-13T11:52:36;20.10;37.10
4411;DHT22;2218;51.408;7.208;2022-11-13T11:59:12;20.10;37.10
4411;DHT22;2218;51.408;7.208;2022-11-13T12:02:34;20.10;37.20
4411;DHT22;2218;51.408;7.208;2022-11-13T12:05:39;20.10;37.20
4411;DHT22;2218;51.408;7.208;2022-11-13T12:08:36;20.10;37.30
4411;DHT22;2218;51.408;7.208;2022-11-13T12:11:31;20.10;37.20
4411;DHT22;2218;51.408;7.208;2022-11-13T12:14:25;20.10;37.20
4411;DHT22;2218;51.408;7.208;2022-11-13T12:17:34;20.10;37.20
4411;DHT22;2218;51.408;7.208;2022-11-13T12:20:35;20.10;37.30
4411;DHT22;2218;51.408;7.208;2022-11-13T12:23:38;20.10;37.30
4411;DHT22;2218;51.408;7.208;2022-11-13T12:26:38;20.10;37.30
4411;DHT22;2218;51.408;7.208;2022-11-13T12:29:45;20.10;37.80
4411;DHT22;2218;51.408;7.208;2022-11-13T12:32:53;20.10;37.30
4411;DHT22;2218;51.408;7.208;2022-11-13T12:35:50;20.10;37.30
4411;DHT22;2218;51.408;7.208;2022-11-13T12:38:46;20.10;37.30
4411;DHT22;2218;51.408;7.208;2022-11-13T12:41:40;20.10;37.30
4411;DHT22;2218;51.408;7.208;2022-11-13T12:44:37;20.10;37.40
4411;DHT22;2218;51.408;7.208;2022-11-13T12:47:33;20.10;37.30
4411;DHT22;2218;51.408;7.208;2022-11-13T12:50:25;20.10;37.40
4411;DHT22;2218;51.408;7.208;2022-11-13T12:53:23;20.10;37.30
4411;DHT22;2218;51.408;7.208;2022-11-13T12:56:16;20.20;37.40
4411;DHT22;2218;51.408;7.208;2022-11-13T12:59:30;20.10;37.40
4411;DHT22;2218;51.408;7.208;2022-11-13T13:02:48;20.10;37.40
4411;DHT22;2218;51.408;7.208;2022-11-13T13:06:08;20.10;37.50
4411;DHT22;2218;51.408;7.208;2022-11-13T13:09:11;20.20;37.60
4411;DHT22;2218;51.408;7.208;2022-11-13T13:12:18;20.20;37.60
4411;DHT22;2218;51.408;7.208;2022-11-13T13:15:29;20.10;37.50
4411;DHT22;2218;51.408;7.208;2022-11-13T13:18:26;20.10;37.50
4411;DHT22;2218;51.408;7.208;2022-11-13T13:21:15;20.20;37.60
4411;DHT22;2218;51.408;7.208;2022-11-13T13:24:08;20.20;37.60
4411;DHT22;2218;51.408;7.208;2022-11-13T13:27:25;20.20;37.60
4411;DHT22;2218;51.408;7.208;2022-11-13T13:30:18;20.20;37.70
4411;DHT22;2218;51.408;7.208;2022-11-13T13:33:15;20.20;37.70
4411;DHT22;2218;51.408;7.208;2022-11-13T13:36:16;20.20;37.70
4411;DHT22;2218;51.408;7.208;2022-11-13T13:39:26;20.20;37.60
4411;DHT22;2218;51.408;7.208;2022-11-13T13:42:32;20.20;37.60
4411;DHT22;2218;51.408;7.208;2022-11-13T13:45:36;20.20;37.60
4411;DHT22;2218;51.408;7.208;2022-11-13T13:48:31;20.20;37.70
4411;DHT22;2218;51.408;7.208;2022-11-13T13:51:26;20.20;37.70
4411;DHT22;2218;51.408;7.208;2022-11-13T13:54:17;20.20;37.70
4411;DHT22;2218;51.408;7.208;2022-11-13T13:57:12;20.20;37.80
4411;DHT22;2218;51.408;7.208;2022-11-13T14:00:00;20.20;37.80
4411;DHT22;2218;51.408;7.208;2022-11-13T14:02:48;20.20;37.90
4411;DHT22;2218;51.408;7.208;2022-11-13T14:05:35;20.20;37.90
4411;DHT22;2218;51.408;7.208;2022-11-13T14:08:23;20.20;37.90
4411;DHT22;2218;51.408;7.208;2022-11-13T14:11:18;20.20;37.90
4411;DHT22;2218;51.408;7.208;2022-11-13T14:14:08;20.20;37.90
4411;DHT22;2218;51.408;7.208;2022-11-13T14:17:01;20.20;37.90
4411;DHT22;2218;51.408;7.208;2022-11-13T14:19:48;20.20;38.00
4411;DHT22;2218;51.408;7.208;2022-11-13T14:22:34;20.20;38.00
4411;DHT22;2218;51.408;7.208;2022-11-13T14:25:23;20.20;38.10
4411;DHT22;2218;51.408;7.208;2022-11-13T14:28:14;20.20;38.10
4411;DHT22;2218;51.408;7.208;2022-11-13T14:31:03;20.20;38.10
4411;DHT22;2218;51.408;7.208;2022-11-13T14:33:51;20.20;38.20
4411;DHT22;2218;51.408;7.208;2022-11-13T14:36:38;20.20;38.10
4411;DHT22;2218;51.408;7.208;2022-11-13T14:39:28;20.10;38.10
4411;DHT22;2218;51.408;7.208;2022-11-13T14:42:18;20.10;38.00
4411;DHT22;2218;51.408;7.208;2022-11-13T14:45:17;20.20;38.20
4411;DHT22;2218;51.408;7.208;2022-11-13T14:48:17;20.20;38.10
4411;DHT22;2218;51.408;7.208;2022-11-13T14:51:18;20.20;38.10
4411;DHT22;2218;51.408;7.208;2022-11-13T14:54:26;20.20;38.20
4411;DHT22;2218;51.408;7.208;2022-11-13T14:57:14;20.20;38.20
4411;DHT22;2218;51.408;7.208;2022-11-13T15:00:09;20.20;38.20
4411;DHT22;2218;51.408;7.208;2022-11-13T15:02:56;20.10;38.10
4411;DHT22;2218;51.408;7.208;2022-11-13T15:05:42;20.10;38.10
4411;DHT22;2218;51.408;7.208;2022-11-13T15:08:29;20.10;38.10
4411;DHT22;2218;51.408;7.208;2022-11-13T15:11:16;20.10;38.10
4411;DHT22;2218;51.408;7.208;2022-11-13T15:14:09;20.10;38.20
4411;DHT22;2218;51.408;7.208;2022-11-13T15:16:57;20.10;38.20
4411;DHT22;2218;51.408;7.208;2022-11-13T15:19:44;20.10;38.20
4411;DHT22;2218;51.408;7.208;2022-11-13T15:22:31;20.10;38.20
4411;DHT22;2218;51.408;7.208;2022-11-13T15:25:19;20.10;38.20
4411;DHT22;2218;51.408;7.208;2022-11-13T15:28:06;20.10;38.20
4411;DHT22;2218;51.408;7.208;2022-11-13T15:30:52;20.10;38.20
4411;DHT22;2218;51.408;7.208;2022-11-13T15:33:37;20.10;38.20
4411;DHT22;2218;51.408;7.208;2022-11-13T15:36:23;20.10;38.20
4411;DHT22;2218;51.408;7.208;2022-11-13T15:39:10;20.10;38.20
4411;DHT22;2218;51.408;7.208;2022-11-13T15:41:57;20.10;38.20
4411;DHT22;2218;51.408;7.208;2022-11-13T15:44:43;20.10;38.20
4411;DHT22;2218;51.408;7.208;2022-11-13T15:47:30;20.10;38.20
4411;DHT22;2218;51.408;7.208;2022-11-13T15:50:17;20.10;38.20
4411;DHT22;2218;51.408;7.208;2022-11-13T15:53:05;20.10;38.20
4411;DHT22;2218;51.408;7.208;2022-11-13T15:55:55;20.10;38.20
4411;DHT22;2218;51.408;7.208;2022-11-13T15:58:47;20.10;38.20
4411;DHT22;2218;51.408;7.208;2022-11-13T16:01:32;20.10;38.20
4411;DHT22;2218;51.408;7.208;2022-11-13T16:04:18;20.10;38.30
4411;DHT22;2218;51.408;7.208;2022-11-13T16:07:04;20.10;38.30
4411;DHT22;2218;51.408;7.208;2022-11-13T16:09:50;20.10;38.30
4411;DHT22;2218;51.408;7.208;2022-11-13T16:12:35;20.10;38.30
4411;DHT22;2218;51.408;7.208;2022-11-13T16:15:22;20.10;38.30
4411;DHT22;2218;51.408;7.208;2022-11-13T16:18:22;20.00;38.20
4411;DHT22;2218;51.408;7.208;2022-11-13T16:21:11;20.00;38.20
4411;DHT22;2218;51.408;7.208;2022-11-13T16:23:57;20.00;38.20
4411;DHT22;2218;51.408;7.208;2022-11-13T16:26:48;20.00;38.20
4411;DHT22;2218;51.408;7.208;2022-11-13T16:29:38;20.00;38.20
4411;DHT22;2218;51.408;7.208;2022-11-13T16:32:25;20.00;38.20
4411;DHT22;2218;51.408;7.208;2022-11-13T16:35:12;20.00;38.20
4411;DHT22;2218;51.408;7.208;2022-11-13T16:37:58;20.00;38.30
4411;DHT22;2218;51.408;7.208;2022-11-13T16:40:44;20.00;38.30
4411;DHT22;2218;51.408;7.208;2022-11-13T16:43:29;20.00;38.20
4411;DHT22;2218;51.408;7.208;2022-11-13T16:46:19;20.00;38.30
4411;DHT22;2218;51.408;7.208;2022-11-13T16:49:13;20.00;38.30
4411;DHT22;2218;51.408;7.208;2022-11-13T16:52:02;20.00;38.30
4411;DHT22;2218;51.408;7.208;2022-11-13T16:54:48;20.00;38.30
4411;DHT22;2218;51.408;7.208;2022-11-13T16:57:34;20.00;38.30
4411;DHT22;2218;51.408;7.208;2022-11-13T17:00:19;20.00;38.30
4411;DHT22;2218;51.408;7.208;2022-11-13T17:03:05;20.00;38.30
4411;DHT22;2218;51.408;7.208;2022-11-13T17:05:52;20.00;38.30
4411;DHT22;2218;51.408;7.208;2022-11-13T17:08:37;20.00;38.30
4411;DHT22;2218;51.408;7.208;2022-11-13T17:11:25;20.00;38.40
4411;DHT22;2218;51.408;7.208;2022-11-13T17:14:11;20.00;38.40
4411;DHT22;2218;51.408;7.208;2022-11-13T17:16:57;20.00;38.40
4411;DHT22;2218;51.408;7.208;2022-11-13T17:19:43;20.00;38.40
4411;DHT22;2218;51.408;7.208;2022-11-13T17:22:29;20.00;38.40
4411;DHT22;2218;51.408;7.208;2022-11-13T17:25:15;20.00;38.40
4411;DHT22;2218;51.408;7.208;2022-11-13T17:28:01;20.00;38.40
4411;DHT22;2218;51.408;7.208;2022-11-13T17:30:47;20.00;38.90
4411;DHT22;2218;51.408;7.208;2022-11-13T17:33:33;20.00;38.40
4411;DHT22;2218;51.408;7.208;2022-11-13T17:36:19;20.00;38.40
4411;DHT22;2218;51.408;7.208;2022-11-13T17:39:06;20.00;38.50
4411;DHT22;2218;51.408;7.208;2022-11-13T17:41:51;20.00;38.40
4411;DHT22;2218;51.408;7.208;2022-11-13T17:44:37;20.00;38.40
4411;DHT22;2218;51.408;7.208;2022-11-13T17:47:22;20.00;38.50
4411;DHT22;2218;51.408;7.208;2022-11-13T17:50:08;20.00;38.50
4411;DHT22;2218;51.408;7.208;2022-11-13T17:52:54;20.00;38.50
4411;DHT22;2218;51.408;7.208;2022-11-13T17:55:41;20.00;38.50
4411;DHT22;2218;51.408;7.208;2022-11-13T17:58:28;20.00;38.50
4411;DHT22;2218;51.408;7.208;2022-11-13T18:01:15;20.00;38.50
4411;DHT22;2218;51.408;7.208;2022-11-13T18:04:02;20.00;38.50
4411;DHT22;2218;51.408;7.208;2022-11-13T18:06:48;20.00;38.40
4411;DHT22;2218;51.408;7.208;2022-11-13T18:09:33;20.00;38.50
4411;DHT22;2218;51.408;7.208;2022-11-13T18:12:21;20.00;38.50
4411;DHT22;2218;51.408;7.208;2022-11-13T18:15:07;20.00;38.50
4411;DHT22;2218;51.408;7.208;2022-11-13T18:17:52;20.00;38.50
4411;DHT22;2218;51.408;7.208;2022-11-13T18:20:39;20.00;38.50
4411;DHT22;2218;51.408;7.208;2022-11-13T18:23:24;20.00;38.40
4411;DHT22;2218;51.408;7.208;2022-11-13T18:26:12;20.00;38.40
4411;DHT22;2218;51.408;7.208;2022-11-13T18:29:02;20.00;38.50